createdAt,value
2022-08-23T00:01:44.904Z,0
2022-08-23T00:06:44.900Z,0
2022-08-23T00:11:44.911Z,0
2022-08-23T00:16:44.891Z,0
2022-08-23T00:21:44.872Z,0
2022-08-23T00:26:44.883Z,0
2022-08-23T00:31:44.891Z,0
2022-08-23T00:36:44.985Z,0
2022-08-23T00:41:47.061Z,0
2022-08-23T00:46:46.861Z,0
2022-08-23T00:51:52.891Z,0
2022-08-23T00:56:46.902Z,0
2022-08-23T01:01:46.977Z,0
2022-08-23T01:06:46.851Z,0
2022-08-23T01:11:46.908Z,0
2022-08-23T01:16:46.861Z,0
2022-08-23T01:21:46.848Z,0
2022-08-23T01:26:46.860Z,0
2022-08-23T01:31:46.865Z,0
2022-08-23T01:36:46.847Z,0
2022-08-23T01:41:47.221Z,0
2022-08-23T01:46:47.128Z,0
2022-08-23T01:51:47.106Z,0
2022-08-23T01:56:47.120Z,0
2022-08-23T02:01:47.132Z,0
2022-08-23T02:06:47.098Z,0
2022-08-23T02:11:47.100Z,0
2022-08-23T02:16:59.939Z,0
2022-08-23T02:21:47.087Z,0
2022-08-23T02:26:47.074Z,0
2022-08-23T02:31:47.105Z,0
2022-08-23T02:36:47.101Z,0
2022-08-23T02:41:47.092Z,0
2022-08-23T02:46:47.084Z,0
2022-08-23T02:51:47.094Z,0
2022-08-23T02:56:47.091Z,0
2022-08-23T03:01:47.086Z,0
2022-08-23T03:06:47.095Z,0
2022-08-23T03:11:47.099Z,0
2022-08-23T03:16:47.080Z,0
2022-08-23T03:21:47.079Z,0
2022-08-23T03:26:47.076Z,0
2022-08-23T03:31:47.071Z,0
2022-08-23T03:36:47.089Z,0
2022-08-23T03:41:47.077Z,0
2022-08-23T03:46:47.058Z,0
2022-08-23T03:51:47.089Z,0
2022-08-23T03:56:47.080Z,0
2022-08-23T04:01:47.112Z,0
2022-08-23T04:06:47.071Z,0
2022-08-23T04:11:47.065Z,0
2022-08-23T04:16:47.064Z,0
2022-08-23T04:21:47.036Z,0
2022-08-23T04:26:47.438Z,0
2022-08-23T04:31:47.083Z,0
2022-08-23T04:36:50.035Z,1
2022-08-23T04:41:47.047Z,3
2022-08-23T04:46:47.064Z,2
2022-08-23T04:51:52.815Z,6
2022-08-23T04:56:50.961Z,6
2022-08-23T05:01:47.043Z,13
2022-08-23T05:06:47.040Z,10
2022-08-23T05:11:47.024Z,12
2022-08-23T05:16:47.039Z,13
2022-08-23T05:21:47.051Z,13
2022-08-23T05:26:47.838Z,13
2022-08-23T05:31:49.830Z,14
2022-08-23T05:36:54.990Z,15
2022-08-23T05:41:49.159Z,19
2022-08-23T05:46:49.145Z,20
2022-08-23T05:51:51.588Z,24
2022-08-23T05:56:49.105Z,30
2022-08-23T06:01:50.253Z,34
2022-08-23T06:06:49.130Z,37
2022-08-23T06:11:49.139Z,40
2022-08-23T06:16:51.683Z,44
2022-08-23T06:21:49.141Z,45
2022-08-23T06:26:49.150Z,47
2022-08-23T06:31:49.223Z,49
2022-08-23T06:36:49.117Z,41
2022-08-23T06:41:49.139Z,43
2022-08-23T06:46:49.594Z,55
2022-08-23T06:51:49.957Z,61
2022-08-23T06:56:49.857Z,79
2022-08-23T07:01:49.962Z,119
2022-08-23T07:06:49.872Z,125
2022-08-23T07:11:49.867Z,133
2022-08-23T07:16:49.867Z,171
2022-08-23T07:21:49.854Z,194
2022-08-23T07:26:49.853Z,246
2022-08-23T07:31:49.990Z,262
2022-08-23T07:36:49.846Z,273
2022-08-23T07:41:49.855Z,356
2022-08-23T07:46:49.913Z,390
2022-08-23T07:51:49.839Z,405
2022-08-23T07:56:49.846Z,415
2022-08-23T08:01:49.920Z,435
2022-08-23T08:07:00.160Z,462
2022-08-23T08:11:49.845Z,485
2022-08-23T08:16:49.842Z,505
2022-08-23T08:21:51.284Z,526
2022-08-23T08:26:50.468Z,547
2022-08-23T08:31:54.077Z,564
2022-08-23T08:36:50.489Z,583
2022-08-23T08:41:50.861Z,606
2022-08-23T08:46:50.544Z,631
2022-08-23T08:51:50.472Z,655
2022-08-23T08:56:50.451Z,674
2022-08-23T09:01:52.333Z,690
2022-08-23T09:06:52.125Z,709
2022-08-23T09:11:52.155Z,722
2022-08-23T09:16:52.408Z,730
2022-08-23T09:21:52.384Z,738
2022-08-23T09:26:52.411Z,751
2022-08-23T09:31:52.558Z,763
2022-08-23T09:36:52.802Z,773
2022-08-23T09:41:52.647Z,778
2022-08-23T09:46:52.633Z,789
2022-08-23T09:51:52.609Z,800
2022-08-23T09:56:52.658Z,808
2022-08-23T10:01:52.653Z,787
2022-08-23T10:06:52.642Z,832
2022-08-23T10:11:52.634Z,837
2022-08-23T10:16:52.632Z,845
2022-08-23T10:21:54.616Z,848
2022-08-23T10:26:59.633Z,862
2022-08-23T10:31:59.587Z,860
2022-08-23T10:36:59.627Z,855
2022-08-23T10:41:59.590Z,862
2022-08-23T10:46:59.645Z,875
2022-08-23T10:51:59.610Z,853
2022-08-23T10:56:59.587Z,884
2022-08-23T11:01:59.618Z,883
2022-08-23T11:06:59.608Z,879
2022-08-23T11:11:59.624Z,883
2022-08-23T11:16:59.686Z,880
2022-08-23T11:22:00.124Z,867
2022-08-23T11:27:04.047Z,877
2022-08-23T11:32:00.147Z,871
2022-08-23T11:37:00.147Z,819
2022-08-23T11:42:00.113Z,584
2022-08-23T11:47:00.681Z,870
2022-08-23T11:52:00.620Z,868
2022-08-23T11:57:00.629Z,846
2022-08-23T12:02:00.665Z,864
2022-08-23T12:07:00.647Z,829
2022-08-23T12:12:01.696Z,799
2022-08-23T12:17:01.724Z,813
2022-08-23T12:22:01.708Z,803
2022-08-23T12:27:03.108Z,743
2022-08-23T12:32:02.816Z,689
2022-08-23T12:37:05.422Z,745
2022-08-23T12:42:02.797Z,759
2022-08-23T12:47:02.828Z,757
2022-08-23T12:52:02.796Z,759
2022-08-23T12:57:02.807Z,687
2022-08-23T13:02:02.809Z,503
2022-08-23T13:07:02.797Z,740
2022-08-23T13:12:02.835Z,800
2022-08-23T13:17:02.820Z,709
2022-08-23T13:22:02.848Z,711
2022-08-23T13:27:02.890Z,649
2022-08-23T13:32:03.536Z,589
2022-08-23T13:37:02.820Z,635
2022-08-23T13:42:03.035Z,593
2022-08-23T13:47:03.064Z,594
2022-08-23T13:52:33.178Z,490
2022-08-23T13:57:03.617Z,360
2022-08-23T14:02:03.559Z,490
2022-08-23T14:07:03.594Z,537
2022-08-23T14:12:03.999Z,247
2022-08-23T14:17:03.604Z,614
2022-08-23T14:22:03.615Z,608
2022-08-23T14:27:03.576Z,339
2022-08-23T14:32:05.666Z,167
2022-08-23T14:42:08.656Z,256
2022-08-23T14:47:08.645Z,434
2022-08-23T14:52:08.676Z,417
2022-08-23T14:57:08.621Z,377
2022-08-23T15:02:08.726Z,244
2022-08-23T15:07:18.011Z,470
2022-08-23T15:17:11.793Z,355
2022-08-23T15:22:18.990Z,156
2022-08-23T15:27:12.426Z,135
2022-08-23T15:32:12.604Z,310
2022-08-23T15:37:11.775Z,168
2022-08-23T15:42:14.266Z,152
2022-08-23T15:47:11.794Z,140
2022-08-23T15:52:11.800Z,138
2022-08-23T15:57:11.780Z,145
2022-08-23T16:02:11.955Z,129
2022-08-23T16:07:11.762Z,158
2022-08-23T16:12:12.130Z,212
2022-08-23T16:17:12.064Z,193
2022-08-23T16:22:12.006Z,138
2022-08-23T16:27:12.544Z,99
2022-08-23T16:32:13.450Z,100
2022-08-23T16:37:14.186Z,92
2022-08-23T16:42:14.163Z,67
2022-08-23T16:47:14.164Z,51
2022-08-23T16:52:14.163Z,88
2022-08-23T16:57:14.141Z,79
2022-08-23T17:02:14.186Z,58
2022-08-23T17:07:14.167Z,51
2022-08-23T17:12:14.186Z,50
2022-08-23T17:17:14.177Z,48
2022-08-23T17:22:14.423Z,41
2022-08-23T17:27:19.780Z,37
2022-08-23T17:32:19.560Z,34
2022-08-23T17:37:19.543Z,23
2022-08-23T17:42:19.542Z,12
2022-08-23T17:47:19.526Z,13
2022-08-23T17:52:19.558Z,10
2022-08-23T17:57:19.562Z,7
2022-08-23T18:02:19.926Z,5
2022-08-23T18:07:19.785Z,1
2022-08-23T18:12:19.793Z,1
2022-08-23T18:17:19.793Z,0
2022-08-23T18:22:19.776Z,0
2022-08-23T18:27:21.557Z,0
2022-08-23T18:32:19.721Z,0
2022-08-23T18:37:19.760Z,0
2022-08-23T18:42:19.756Z,0
2022-08-23T18:47:19.768Z,0
2022-08-23T18:52:19.785Z,0
2022-08-23T18:57:19.769Z,0
2022-08-23T19:02:19.856Z,0
2022-08-23T19:07:19.788Z,0
2022-08-23T19:12:19.761Z,0
2022-08-23T19:17:19.770Z,0
2022-08-23T19:22:19.784Z,0
2022-08-23T19:27:19.759Z,0
2022-08-23T19:32:19.833Z,0
2022-08-23T19:37:20.579Z,0
2022-08-23T19:42:19.756Z,0
2022-08-23T19:47:21.121Z,0
2022-08-23T19:52:19.756Z,0
2022-08-23T19:57:19.739Z,0
2022-08-23T20:02:19.877Z,0
2022-08-23T20:07:19.743Z,0
2022-08-23T20:12:19.796Z,0
2022-08-23T20:17:19.749Z,0
2022-08-23T20:22:19.744Z,0
2022-08-23T20:27:24.013Z,0
2022-08-23T20:32:19.746Z,0
2022-08-23T20:37:19.785Z,0
2022-08-23T20:42:19.747Z,0
2022-08-23T20:47:19.795Z,0
2022-08-23T20:52:19.776Z,0
2022-08-23T20:57:19.758Z,0
2022-08-23T21:02:19.792Z,0
2022-08-23T21:07:19.737Z,0
2022-08-23T21:12:19.744Z,0
2022-08-23T21:17:19.769Z,0
2022-08-23T21:22:19.763Z,0
2022-08-23T21:27:19.761Z,0
2022-08-23T21:32:19.726Z,0
2022-08-23T21:37:19.747Z,0
2022-08-23T21:42:23.554Z,0
2022-08-23T21:47:19.762Z,0
2022-08-23T21:52:19.760Z,0
2022-08-23T21:57:19.743Z,0
2022-08-23T22:02:19.780Z,0
2022-08-23T22:07:19.777Z,0
2022-08-23T22:12:23.101Z,0
2022-08-23T22:17:19.732Z,0
2022-08-23T22:22:19.711Z,0
2022-08-23T22:27:19.702Z,0
2022-08-23T22:32:19.743Z,0
2022-08-23T22:37:19.751Z,0
2022-08-23T22:42:19.741Z,0
2022-08-23T22:47:19.720Z,0
2022-08-23T22:52:19.703Z,0
2022-08-23T22:57:19.723Z,0
2022-08-23T23:02:19.701Z,0
2022-08-23T23:07:19.706Z,0
2022-08-23T23:12:19.704Z,0
2022-08-23T23:17:19.699Z,0
2022-08-23T23:22:19.743Z,0
2022-08-23T23:27:19.747Z,0
2022-08-23T23:32:19.681Z,0
2022-08-23T23:37:19.739Z,0
2022-08-23T23:42:19.755Z,0
2022-08-23T23:47:19.712Z,0
2022-08-23T23:52:19.724Z,0
2022-08-23T23:57:19.708Z,0
